createdAt,value
2022-11-18T00:01:31.337Z,0.20
2022-11-18T00:03:59.190Z,0.20
2022-11-18T00:06:29.039Z,0.20
2022-11-18T00:08:58.959Z,0.20
2022-11-18T00:11:46.267Z,0.20
2022-11-18T00:14:23.435Z,0.20
2022-11-18T00:16:54.483Z,0.20
2022-11-18T00:19:27.091Z,0.20
2022-11-18T00:21:55.700Z,0.20
2022-11-18T00:24:24.409Z,0.20
2022-11-18T00:26:53.829Z,0.20
2022-11-18T00:29:22.581Z,0.20
2022-11-18T00:31:51.037Z,0.27
2022-11-18T00:34:19.935Z,0.20
2022-11-18T00:36:48.831Z,0.20
2022-11-18T00:39:19.353Z,0.20
2022-11-18T00:42:05.665Z,0.20
2022-11-18T00:44:35.167Z,0.20
2022-11-18T00:47:03.093Z,0.20
2022-11-18T00:49:31.346Z,0.20
2022-11-18T00:52:01.166Z,0.20
2022-11-18T00:54:29.086Z,0.10
2022-11-18T00:56:56.904Z,0.20
2022-11-18T00:59:24.908Z,0.20
2022-11-18T01:01:56.180Z,0.20
2022-11-18T01:04:24.326Z,0.20
2022-11-18T01:06:52.589Z,0.20
2022-11-18T01:09:20.950Z,0.20
2022-11-18T01:12:06.095Z,0.20
2022-11-18T01:14:33.915Z,0.20
2022-11-18T01:17:03.145Z,0.20
2022-11-18T01:19:30.968Z,0.20
2022-11-18T01:22:03.078Z,0.20
2022-11-18T01:24:31.457Z,0.20
2022-11-18T01:26:59.838Z,0.20
2022-11-18T01:29:27.918Z,0.20
2022-11-18T01:32:22.966Z,0.20
2022-11-18T01:34:45.011Z,0.20
2022-11-18T01:37:17.307Z,0.20
2022-11-18T01:39:45.132Z,0.20
2022-11-18T01:42:16.037Z,0.20
2022-11-18T01:45:09.857Z,0.20
2022-11-18T01:47:43.340Z,0.20
2022-11-18T01:50:19.115Z,0.20
2022-11-18T01:52:51.621Z,0.20
2022-11-18T01:55:25.532Z,0.20
2022-11-18T01:57:58.368Z,0.20
2022-11-18T02:00:26.220Z,0.30
2022-11-18T02:02:54.557Z,0.20
2022-11-18T02:05:24.912Z,0.20
2022-11-18T02:07:53.136Z,0.30
2022-11-18T02:10:25.227Z,0.20
2022-11-18T02:12:55.402Z,0.20
2022-11-18T02:15:37.727Z,0.20
2022-11-18T02:18:14.130Z,0.20
2022-11-18T02:20:45.323Z,0.20
2022-11-18T02:23:53.957Z,0.20
2022-11-18T02:27:02.250Z,0.20
2022-11-18T02:29:36.690Z,0.20
2022-11-18T02:32:11.497Z,0.20
2022-11-18T02:34:49.929Z,0.20
2022-11-18T02:37:25.680Z,0.20
2022-11-18T02:39:57.403Z,0.20
2022-11-18T02:42:27.760Z,0.20
2022-11-18T02:45:01.761Z,0.20
2022-11-18T02:47:32.802Z,0.20
2022-11-18T02:50:05.337Z,0.20
2022-11-18T02:52:36.930Z,0.20
2022-11-18T02:55:10.060Z,0.20
2022-11-18T02:57:40.014Z,0.20
2022-11-18T03:00:10.436Z,0.20
2022-11-18T03:02:48.955Z,0.20
2022-11-18T03:05:21.692Z,0.20
2022-11-18T03:07:55.384Z,0.20
2022-11-18T03:10:26.621Z,0.20
2022-11-18T03:13:07.004Z,0.20
2022-11-18T03:15:46.354Z,0.20
2022-11-18T03:18:23.269Z,0.20
2022-11-18T03:20:54.724Z,0.20
2022-11-18T03:23:28.824Z,0.10
2022-11-18T03:26:03.545Z,0.20
2022-11-18T03:28:37.309Z,0.20
2022-11-18T03:31:13.336Z,0.20
2022-11-18T03:33:46.962Z,0.20
2022-11-18T03:36:19.449Z,0.20
2022-11-18T03:38:51.489Z,0.20
2022-11-18T03:41:21.648Z,0.20
2022-11-18T03:43:55.528Z,0.20
2022-11-18T03:46:29.860Z,0.20
2022-11-18T03:49:00.256Z,0.20
2022-11-18T03:51:33.983Z,0.20
2022-11-18T03:54:07.752Z,0.20
2022-11-18T03:56:42.769Z,0.20
2022-11-18T03:59:15.239Z,0.20
2022-11-18T04:01:50.324Z,0.20
2022-11-18T04:04:18.388Z,0.20
2022-11-18T04:06:50.245Z,0.20
2022-11-18T04:09:22.943Z,0.20
2022-11-18T04:12:04.731Z,0.20
2022-11-18T04:14:34.645Z,0.20
2022-11-18T04:17:07.255Z,0.20
2022-11-18T04:19:35.071Z,0.20
2022-11-18T04:22:03.045Z,0.20
2022-11-18T04:24:31.027Z,0.20
2022-11-18T04:26:58.995Z,0.20
2022-11-18T04:29:26.778Z,0.20
2022-11-18T04:31:54.720Z,0.20
2022-11-18T04:34:23.847Z,0.20
2022-11-18T04:36:53.025Z,0.20
2022-11-18T04:39:21.624Z,0.20
2022-11-18T04:42:01.772Z,0.20
2022-11-18T04:44:31.443Z,0.20
2022-11-18T04:47:00.508Z,0.20
2022-11-18T04:49:30.403Z,0.20
2022-11-18T04:51:58.935Z,0.20
2022-11-18T04:54:27.940Z,0.20
2022-11-18T04:56:56.885Z,0.20
2022-11-18T04:59:28.155Z,0.30
2022-11-18T05:02:01.065Z,0.37
2022-11-18T05:04:32.157Z,0.20
2022-11-18T05:07:01.155Z,0.20
2022-11-18T05:09:31.974Z,0.20
2022-11-18T05:12:19.931Z,0.20
2022-11-18T05:14:50.757Z,0.20
2022-11-18T05:17:19.826Z,0.30
2022-11-18T05:19:48.942Z,0.20
2022-11-18T05:22:16.990Z,0.30
2022-11-18T05:24:47.144Z,0.20
2022-11-18T05:27:15.570Z,0.20
2022-11-18T05:29:43.694Z,0.20
2022-11-18T05:32:12.587Z,0.30
2022-11-18T05:34:41.040Z,0.20
2022-11-18T05:37:11.785Z,0.40
2022-11-18T05:39:40.122Z,0.20
2022-11-18T05:42:25.930Z,0.30
2022-11-18T05:44:58.176Z,0.30
2022-11-18T05:47:26.612Z,0.20
2022-11-18T05:49:54.705Z,0.20
2022-11-18T05:52:24.092Z,0.27
2022-11-18T05:54:52.742Z,0.20
2022-11-18T05:57:21.715Z,0.43
2022-11-18T05:59:49.728Z,0.30
2022-11-18T06:02:22.101Z,0.20
2022-11-18T06:04:54.493Z,0.20
2022-11-18T06:07:29.664Z,0.20
2022-11-18T06:10:05.598Z,0.20
2022-11-18T06:12:42.246Z,0.20
2022-11-18T06:15:15.844Z,0.30
2022-11-18T06:17:52.394Z,0.20
2022-11-18T06:20:25.127Z,0.20
2022-11-18T06:22:57.466Z,0.20
2022-11-18T06:25:26.051Z,0.23
2022-11-18T06:27:58.128Z,0.30
2022-11-18T06:30:26.674Z,0.20
2022-11-18T06:32:54.636Z,0.20
2022-11-18T06:35:22.556Z,0.20
2022-11-18T06:37:50.367Z,0.20
2022-11-18T06:40:19.986Z,0.20
2022-11-18T06:43:11.288Z,0.20
2022-11-18T06:45:39.230Z,0.20
2022-11-18T06:48:07.739Z,0.20
2022-11-18T06:50:36.420Z,0.20
2022-11-18T06:53:04.374Z,0.20
2022-11-18T06:55:33.626Z,0.20
2022-11-18T06:58:01.553Z,0.20
2022-11-18T07:00:31.063Z,0.20
2022-11-18T07:02:58.960Z,0.20
2022-11-18T07:05:26.905Z,0.20
2022-11-18T07:07:55.030Z,0.20
2022-11-18T07:10:24.149Z,0.20
2022-11-18T07:12:53.360Z,0.20
2022-11-18T07:15:21.295Z,0.30
2022-11-18T07:17:49.285Z,0.20
2022-11-18T07:20:19.104Z,0.20
2022-11-18T07:22:46.960Z,0.20
2022-11-18T07:25:15.384Z,0.20
2022-11-18T07:27:43.241Z,0.20
2022-11-18T07:30:16.794Z,0.20
2022-11-18T07:32:45.909Z,0.20
2022-11-18T07:35:14.404Z,0.20
2022-11-18T07:37:46.917Z,0.20
2022-11-18T07:40:15.444Z,0.20
2022-11-18T07:42:43.612Z,0.20
2022-11-18T07:45:13.802Z,0.20
2022-11-18T07:47:44.012Z,0.20
2022-11-18T07:50:11.891Z,0.30
2022-11-18T07:52:40.001Z,0.20
2022-11-18T07:55:08.900Z,0.20
2022-11-18T07:57:38.002Z,0.20
2022-11-18T08:00:06.905Z,0.20
2022-11-18T08:02:36.451Z,0.23
2022-11-18T08:05:04.790Z,0.30
2022-11-18T08:07:32.966Z,0.20
2022-11-18T08:10:04.105Z,0.20
2022-11-18T08:12:31.957Z,0.20
2022-11-18T08:14:59.769Z,0.30
2022-11-18T08:17:27.772Z,0.20
2022-11-18T08:19:57.086Z,0.20
2022-11-18T08:22:25.055Z,0.20
2022-11-18T08:24:52.952Z,0.20
2022-11-18T08:27:21.410Z,0.20
2022-11-18T08:29:49.422Z,0.20
2022-11-18T08:32:17.695Z,0.20
2022-11-18T08:34:46.682Z,0.30
2022-11-18T08:37:16.305Z,0.30
2022-11-18T08:39:45.968Z,0.20
2022-11-18T08:42:14.681Z,0.20
2022-11-18T08:44:43.032Z,0.20
2022-11-18T08:47:11.014Z,0.20
2022-11-18T08:49:39.067Z,0.20
2022-11-18T08:52:07.570Z,0.20
2022-11-18T08:54:38.120Z,0.30
2022-11-18T08:57:06.229Z,0.20
2022-11-18T08:59:34.120Z,0.20
2022-11-18T09:02:04.841Z,0.20
2022-11-18T09:04:34.318Z,0.20
2022-11-18T09:07:05.474Z,0.30
2022-11-18T09:09:33.542Z,0.20
2022-11-18T09:12:02.863Z,0.20
2022-11-18T09:17:18.686Z,0.27
2022-11-18T09:22:37.547Z,0.30
2022-11-18T09:25:06.061Z,0.20
2022-11-18T09:27:35.497Z,0.20
2022-11-18T09:30:03.421Z,0.20
2022-11-18T09:32:31.651Z,0.20
2022-11-18T09:34:59.643Z,0.20
2022-11-18T09:37:27.588Z,0.20
2022-11-18T09:39:55.441Z,0.20
2022-11-18T09:42:45.975Z,0.30
2022-11-18T09:45:24.741Z,0.20
2022-11-18T09:47:59.067Z,0.30
2022-11-18T09:50:48.398Z,0.20
2022-11-18T09:53:22.974Z,0.20
2022-11-18T09:55:52.945Z,0.20
2022-11-18T09:58:32.411Z,0.20
2022-11-18T10:01:01.919Z,0.20
2022-11-18T10:03:31.732Z,0.20
2022-11-18T10:06:07.210Z,0.30
2022-11-18T10:08:42.406Z,0.20
2022-11-18T10:11:16.115Z,0.20
2022-11-18T10:13:55.648Z,0.20
2022-11-18T10:16:33.423Z,0.30
2022-11-18T10:19:12.809Z,0.30
2022-11-18T10:21:51.702Z,0.20
2022-11-18T10:24:23.702Z,0.30
2022-11-18T10:26:56.677Z,0.20
2022-11-18T10:29:26.538Z,0.30
2022-11-18T10:31:59.633Z,0.20
2022-11-18T10:34:30.714Z,0.20
2022-11-18T10:37:01.688Z,0.20
2022-11-18T10:39:30.160Z,0.20
2022-11-18T10:42:02.315Z,0.27
2022-11-18T10:44:39.705Z,0.20
2022-11-18T10:47:27.646Z,0.20
2022-11-18T10:49:57.616Z,0.20
2022-11-18T10:52:26.847Z,0.20
2022-11-18T10:55:10.890Z,0.20
2022-11-18T10:57:43.604Z,0.20
2022-11-18T11:00:42.417Z,0.20
2022-11-18T11:03:39.986Z,0.20
2022-11-18T11:06:31.451Z,0.20
2022-11-18T11:09:02.066Z,0.20
2022-11-18T11:11:33.120Z,0.27
2022-11-18T11:14:30.209Z,0.20
2022-11-18T11:17:03.718Z,0.20
2022-11-18T11:21:13.916Z,0.20
2022-11-18T11:23:43.683Z,0.20
2022-11-18T11:29:19.936Z,0.20
2022-11-18T11:32:02.501Z,0.20
2022-11-18T11:34:38.143Z,0.30
2022-11-18T11:37:19.842Z,0.20
2022-11-18T11:40:01.670Z,0.20
2022-11-18T11:42:39.050Z,0.23
2022-11-18T11:45:19.194Z,0.30
2022-11-18T11:48:14.196Z,0.30
2022-11-18T11:51:03.993Z,0.30
2022-11-18T11:54:10.139Z,0.20
2022-11-18T11:56:45.615Z,0.20
2022-11-18T11:59:28.727Z,0.30
2022-11-18T12:02:08.581Z,0.20
2022-11-18T12:04:44.767Z,0.30
2022-11-18T12:07:19.790Z,0.30
2022-11-18T12:10:05.495Z,0.20
2022-11-18T12:12:38.645Z,0.30
2022-11-18T12:15:25.959Z,0.30
2022-11-18T12:18:00.813Z,0.23
2022-11-18T12:20:50.775Z,0.40
2022-11-18T12:23:22.015Z,0.30
2022-11-18T12:26:13.405Z,0.33
2022-11-18T12:28:43.863Z,0.30
2022-11-18T12:31:41.691Z,0.40
2022-11-18T12:34:29.314Z,0.33
2022-11-18T12:36:57.525Z,0.30
2022-11-18T12:39:59.286Z,0.30
2022-11-18T12:43:03.231Z,0.30
2022-11-18T12:45:55.425Z,0.27
2022-11-18T12:48:41.139Z,0.30
2022-11-18T12:51:42.455Z,0.30
2022-11-18T12:54:35.468Z,0.30
2022-11-18T12:57:16.885Z,0.30
2022-11-18T12:59:48.377Z,0.20
2022-11-18T13:02:23.475Z,0.30
2022-11-18T13:05:10.144Z,0.40
2022-11-18T13:08:02.830Z,0.30
2022-11-18T13:10:35.600Z,0.40
2022-11-18T13:13:03.880Z,0.30
2022-11-18T13:15:54.090Z,0.30
2022-11-18T13:18:22.082Z,0.50
2022-11-18T13:20:57.813Z,0.40
2022-11-18T13:23:47.000Z,0.30
2022-11-18T13:26:20.759Z,0.27
2022-11-18T13:29:04.517Z,0.30
2022-11-18T13:31:43.137Z,0.40
2022-11-18T13:34:18.962Z,0.33
2022-11-18T13:36:49.423Z,0.50
2022-11-18T13:39:24.320Z,0.30
2022-11-18T13:42:05.543Z,0.30
2022-11-18T13:44:35.235Z,0.40
2022-11-18T13:47:13.623Z,0.30
2022-11-18T13:49:52.055Z,0.33
2022-11-18T13:52:25.226Z,0.40
2022-11-18T13:54:55.399Z,0.40
2022-11-18T13:57:28.430Z,0.30
2022-11-18T13:59:58.004Z,0.30
2022-11-18T14:02:27.140Z,0.57
2022-11-18T14:04:58.067Z,0.93
2022-11-18T14:07:30.067Z,0.30
2022-11-18T14:10:01.066Z,0.50
2022-11-18T14:12:32.631Z,0.40
2022-11-18T14:15:22.078Z,0.50
2022-11-18T14:17:58.793Z,1.00
2022-11-18T14:20:28.389Z,0.80
2022-11-18T14:22:58.576Z,0.40
2022-11-18T14:25:30.332Z,0.50
2022-11-18T14:28:10.262Z,1.03
2022-11-18T14:30:40.023Z,0.40
2022-11-18T14:33:14.704Z,0.30
2022-11-18T14:35:45.180Z,0.50
2022-11-18T14:38:35.823Z,0.73
2022-11-18T14:41:06.217Z,0.50
2022-11-18T14:43:34.061Z,0.40
2022-11-18T14:46:04.462Z,0.30
2022-11-18T14:48:33.886Z,0.50
2022-11-18T14:51:01.967Z,0.30
2022-11-18T14:53:29.924Z,0.40
2022-11-18T14:56:00.217Z,0.47
2022-11-18T14:58:30.391Z,0.57
2022-11-18T15:01:02.565Z,0.20
2022-11-18T15:03:32.722Z,0.40
2022-11-18T15:06:05.316Z,0.30
2022-11-18T15:08:36.409Z,1.03
2022-11-18T15:11:04.414Z,0.50
2022-11-18T15:13:32.522Z,0.80
2022-11-18T15:16:00.545Z,0.40
2022-11-18T15:18:28.334Z,0.40
2022-11-18T15:20:56.289Z,0.50
2022-11-18T15:23:29.611Z,0.50
2022-11-18T15:25:58.381Z,0.40
2022-11-18T15:28:26.426Z,0.40
2022-11-18T15:30:54.341Z,0.40
2022-11-18T15:33:22.317Z,0.40
2022-11-18T15:35:50.203Z,0.40
2022-11-18T15:38:18.046Z,0.50
2022-11-18T15:40:47.246Z,0.47
2022-11-18T15:43:15.273Z,0.30
2022-11-18T15:45:43.128Z,0.30
2022-11-18T15:48:11.048Z,0.40
2022-11-18T15:50:39.909Z,0.40
2022-11-18T15:53:07.750Z,0.50
2022-11-18T15:55:37.670Z,0.40
2022-11-18T15:58:09.958Z,0.50
2022-11-18T16:00:37.934Z,0.43
2022-11-18T16:03:07.375Z,0.40
2022-11-18T16:05:35.241Z,0.50
2022-11-18T16:08:03.152Z,0.30
2022-11-18T16:10:48.803Z,0.37
2022-11-18T16:13:21.919Z,0.47
2022-11-18T16:15:49.740Z,0.40
2022-11-18T16:18:19.678Z,0.40
2022-11-18T16:20:47.643Z,0.30
2022-11-18T16:23:15.408Z,0.37
2022-11-18T16:25:46.567Z,0.40
2022-11-18T16:28:14.537Z,0.40
2022-11-18T16:31:06.654Z,0.40
2022-11-18T16:33:34.561Z,0.40
2022-11-18T16:36:02.832Z,0.40
2022-11-18T16:38:31.093Z,0.40
2022-11-18T16:41:00.284Z,0.50
2022-11-18T16:43:28.118Z,0.40
2022-11-18T16:45:58.361Z,0.40
2022-11-18T16:48:26.261Z,0.50
2022-11-18T16:51:19.185Z,0.40
2022-11-18T16:53:51.933Z,0.40
2022-11-18T16:56:19.811Z,0.50
2022-11-18T16:58:47.763Z,0.70
2022-11-18T17:01:21.127Z,0.60
2022-11-18T17:03:52.883Z,0.53
2022-11-18T17:06:21.133Z,0.40
2022-11-18T17:08:49.019Z,0.53
2022-11-18T17:11:17.030Z,0.57
2022-11-18T17:13:45.183Z,0.50
2022-11-18T17:16:15.975Z,0.97
2022-11-18T17:18:46.092Z,1.13
2022-11-18T17:21:17.498Z,0.50
2022-11-18T17:23:46.329Z,0.43
2022-11-18T17:26:15.718Z,0.83
2022-11-18T17:28:44.016Z,0.40
2022-11-18T17:31:13.446Z,0.50
2022-11-18T17:33:42.691Z,0.83
2022-11-18T17:36:13.759Z,0.40
2022-11-18T17:38:43.360Z,0.70
2022-11-18T17:41:33.910Z,0.53
2022-11-18T17:44:03.430Z,0.50
2022-11-18T17:46:37.496Z,1.07
2022-11-18T17:49:08.517Z,0.40
2022-11-18T17:51:37.666Z,0.60
2022-11-18T17:54:05.952Z,0.70
2022-11-18T17:56:33.841Z,0.53
2022-11-18T17:59:01.983Z,0.57
2022-11-18T18:01:29.953Z,0.50
2022-11-18T18:03:58.028Z,0.40
2022-11-18T18:06:26.811Z,0.50
2022-11-18T18:08:58.864Z,1.60
2022-11-18T18:11:28.011Z,0.67
2022-11-18T18:14:14.377Z,0.90
2022-11-18T18:16:44.916Z,0.70
2022-11-18T18:19:15.350Z,0.93
2022-11-18T18:21:44.662Z,1.20
2022-11-18T18:24:17.241Z,0.73
2022-11-18T18:26:45.742Z,0.50
2022-11-18T18:29:14.137Z,0.87
2022-11-18T18:31:42.159Z,0.50
2022-11-18T18:34:10.426Z,0.60
2022-11-18T18:36:39.518Z,0.40
2022-11-18T18:39:07.546Z,0.60
2022-11-18T18:41:38.494Z,0.50
2022-11-18T18:44:06.609Z,0.50
2022-11-18T18:46:33.464Z,0.80
2022-11-18T18:49:04.145Z,0.77
2022-11-18T18:51:38.109Z,0.40
2022-11-18T18:54:07.006Z,1.13
2022-11-18T18:56:40.238Z,2.40
2022-11-18T18:59:08.589Z,1.33
2022-11-18T19:01:42.084Z,0.73
2022-11-18T19:04:20.079Z,0.90
2022-11-18T19:07:04.133Z,2.03
2022-11-18T19:09:34.505Z,0.70
2022-11-18T19:12:21.458Z,1.80
2022-11-18T19:14:49.330Z,1.40
2022-11-18T19:17:17.532Z,0.67
2022-11-18T19:20:05.692Z,0.93
2022-11-18T19:22:34.819Z,0.47
2022-11-18T19:25:05.103Z,1.77
2022-11-18T19:27:40.180Z,1.57
2022-11-18T19:30:09.794Z,0.93
2022-11-18T19:32:37.963Z,0.73
2022-11-18T19:35:09.048Z,2.70
2022-11-18T19:37:38.628Z,0.70
2022-11-18T19:40:10.606Z,1.23
2022-11-18T19:42:41.950Z,2.17
2022-11-18T19:45:11.538Z,3.13
2022-11-18T19:47:39.619Z,3.73
2022-11-18T19:50:08.194Z,0.47
2022-11-18T19:52:36.086Z,1.27
2022-11-18T19:55:05.400Z,0.73
2022-11-18T19:57:33.422Z,1.10
2022-11-18T20:00:08.522Z,1.93
2022-11-18T20:02:36.461Z,1.80
2022-11-18T20:05:22.885Z,0.90
2022-11-18T20:07:52.814Z,0.40
2022-11-18T20:10:24.021Z,0.50
2022-11-18T20:12:52.759Z,1.20
2022-11-18T20:15:25.020Z,0.63
2022-11-18T20:17:52.901Z,0.53
2022-11-18T20:20:20.834Z,0.90
2022-11-18T20:22:49.099Z,2.30
2022-11-18T20:25:17.225Z,0.63
2022-11-18T20:27:45.173Z,2.10
2022-11-18T20:30:14.493Z,0.60
2022-11-18T20:32:46.006Z,0.70
2022-11-18T20:35:14.151Z,0.70
2022-11-18T20:37:42.900Z,0.90
2022-11-18T20:40:11.704Z,1.77
2022-11-18T20:42:57.215Z,1.47
2022-11-18T20:45:25.180Z,1.00
2022-11-18T20:47:54.698Z,1.43
2022-11-18T20:50:22.551Z,0.70
2022-11-18T20:52:50.394Z,1.33
2022-11-18T20:55:18.298Z,0.67
2022-11-18T20:57:46.214Z,0.97
2022-11-18T21:00:16.338Z,0.70
2022-11-18T21:02:46.898Z,2.10
2022-11-18T21:05:19.216Z,0.50
2022-11-18T21:07:49.088Z,1.20
2022-11-18T21:10:18.218Z,1.37
2022-11-18T21:13:00.215Z,0.70
2022-11-18T21:15:28.255Z,0.60
2022-11-18T21:17:56.235Z,1.90
2022-11-18T21:20:43.458Z,1.03
2022-11-18T21:23:12.707Z,0.90
2022-11-18T21:25:41.277Z,1.10
2022-11-18T21:28:11.584Z,0.40
2022-11-18T21:30:39.574Z,0.43
2022-11-18T21:33:07.595Z,0.73
2022-11-18T21:35:39.772Z,0.70
2022-11-18T21:38:07.871Z,0.60
2022-11-18T21:40:35.818Z,1.33
2022-11-18T21:43:03.689Z,1.00
2022-11-18T21:45:43.344Z,0.70
2022-11-18T21:48:12.152Z,0.97
2022-11-18T21:50:44.063Z,0.60
2022-11-18T21:53:12.198Z,0.73
2022-11-18T21:55:40.702Z,0.90
2022-11-18T21:58:09.497Z,0.73
2022-11-18T22:00:37.736Z,0.80
2022-11-18T22:03:05.904Z,1.27
2022-11-18T22:05:33.801Z,1.17
2022-11-18T22:08:03.511Z,0.70
2022-11-18T22:10:31.483Z,0.63
2022-11-18T22:12:59.296Z,1.10
2022-11-18T22:15:27.182Z,0.90
2022-11-18T22:17:55.075Z,1.17
2022-11-18T22:20:24.114Z,0.80
2022-11-18T22:22:52.205Z,1.37
2022-11-18T22:25:24.647Z,0.50
2022-11-18T22:27:55.054Z,1.07
2022-11-18T22:30:22.941Z,1.60
2022-11-18T22:32:51.133Z,0.90
2022-11-18T22:35:18.963Z,0.73
2022-11-18T22:37:46.772Z,0.80
2022-11-18T22:40:14.756Z,0.77
2022-11-18T22:42:50.018Z,1.23
2022-11-18T22:45:18.082Z,1.00
2022-11-18T22:47:45.981Z,0.77
2022-11-18T22:50:16.330Z,0.60
2022-11-18T22:52:44.622Z,1.30
2022-11-18T22:55:12.937Z,0.70
2022-11-18T22:57:42.823Z,0.90
2022-11-18T23:00:13.747Z,0.80
2022-11-18T23:02:41.693Z,0.93
2022-11-18T23:05:10.741Z,0.57
2022-11-18T23:07:38.643Z,0.60
2022-11-18T23:10:07.287Z,0.93
2022-11-18T23:12:51.983Z,0.87
2022-11-18T23:15:21.192Z,0.60
2022-11-18T23:17:49.142Z,0.70
2022-11-18T23:20:17.516Z,0.60
2022-11-18T23:22:47.875Z,0.50
2022-11-18T23:25:15.902Z,0.57
2022-11-18T23:27:43.828Z,0.60
2022-11-18T23:30:12.797Z,0.70
2022-11-18T23:32:43.285Z,0.53
2022-11-18T23:35:11.116Z,0.60
2022-11-18T23:37:38.998Z,0.57
2022-11-18T23:40:08.167Z,0.67
2022-11-18T23:42:36.023Z,0.70
2022-11-18T23:45:05.713Z,0.57
2022-11-18T23:47:33.782Z,0.60
2022-11-18T23:50:03.158Z,0.60
2022-11-18T23:52:31.124Z,0.50
2022-11-18T23:55:01.357Z,0.70
2022-11-18T23:57:29.300Z,0.70
2022-11-18T23:59:57.112Z,0.50
